createdAt,value
2019-02-24T00:02:35.475Z,77.70
2019-02-24T00:07:41.713Z,78.10
2019-02-24T00:12:48.607Z,78.40
2019-02-24T00:17:54.895Z,78.70
2019-02-24T00:23:01.340Z,79.60
2019-02-24T00:28:07.711Z,80.30
2019-02-24T00:33:15.233Z,80.70
2019-02-24T00:38:22.641Z,81.50
2019-02-24T00:43:28.989Z,82.20
2019-02-24T00:48:36.394Z,82.30
2019-02-24T00:53:42.712Z,82.40
2019-02-24T00:58:50.067Z,81.60
2019-02-24T01:03:56.365Z,82.60
2019-02-24T01:09:02.707Z,83.30
2019-02-24T01:14:10.593Z,83.40
2019-02-24T01:19:18.705Z,83.20
2019-02-24T01:24:24.949Z,83.60
2019-02-24T01:29:31.348Z,82.80
2019-02-24T01:34:38.633Z,83.10
2019-02-24T01:39:45.143Z,82.90
2019-02-24T01:44:51.527Z,82.70
2019-02-24T01:49:57.875Z,83.00
2019-02-24T01:55:05.346Z,82.20
2019-02-24T02:00:11.580Z,83.00
2019-02-24T02:05:17.918Z,83.10
2019-02-24T02:10:24.215Z,81.70
2019-02-24T02:15:30.527Z,83.20
2019-02-24T02:20:36.812Z,81.60
2019-02-24T02:25:43.328Z,81.80
2019-02-24T02:31:01.110Z,80.80
2019-02-24T02:36:12.200Z,81.20
2019-02-24T02:41:18.959Z,80.40
2019-02-24T02:46:25.302Z,80.50
2019-02-24T02:51:31.585Z,80.40
2019-02-24T02:56:37.957Z,79.90
2019-02-24T03:01:44.326Z,79.70
2019-02-24T03:07:15.572Z,80.00
2019-02-24T03:12:21.961Z,80.00
2019-02-24T03:17:28.481Z,80.40
2019-02-24T03:22:34.755Z,79.70
2019-02-24T03:27:41.063Z,80.10
2019-02-24T03:32:47.461Z,79.70
2019-02-24T03:37:54.006Z,79.70
2019-02-24T03:43:00.418Z,81.00
2019-02-24T03:48:07.293Z,80.70
2019-02-24T03:53:13.970Z,81.70
2019-02-24T03:58:21.197Z,81.70
2019-02-24T04:03:28.752Z,80.00
2019-02-24T04:08:37.377Z,81.80
2019-02-24T04:13:43.819Z,80.30
2019-02-24T04:18:52.919Z,80.10
2019-02-24T04:23:59.246Z,80.60
2019-02-24T04:29:06.088Z,80.20
2019-02-24T04:34:12.427Z,79.70
2019-02-24T04:39:18.699Z,80.00
2019-02-24T04:44:25.023Z,79.30
2019-02-24T04:49:31.331Z,79.20
2019-02-24T04:54:37.648Z,79.20
2019-02-24T04:59:43.927Z,78.30
2019-02-24T05:04:50.245Z,78.00
2019-02-24T05:09:56.612Z,77.90
2019-02-24T05:15:02.940Z,78.10
2019-02-24T05:20:09.805Z,78.80
2019-02-24T05:25:17.203Z,77.10
2019-02-24T05:30:24.181Z,76.70
2019-02-24T05:35:30.563Z,77.30
2019-02-24T05:40:36.887Z,77.00
2019-02-24T05:45:43.231Z,77.80
2019-02-24T05:50:50.556Z,77.60
2019-02-24T05:55:57.299Z,77.20
2019-02-24T06:01:03.739Z,78.00
2019-02-24T06:06:10.127Z,76.90
2019-02-24T06:11:16.464Z,76.50
2019-02-24T06:16:23.527Z,75.00
2019-02-24T06:21:30.138Z,75.40
2019-02-24T06:26:36.819Z,76.80
2019-02-24T06:31:44.276Z,76.90
2019-02-24T06:36:50.536Z,75.30
2019-02-24T06:41:58.995Z,75.80
2019-02-24T06:47:05.563Z,76.80
2019-02-24T06:52:11.766Z,76.60
2019-02-24T06:57:18.036Z,76.30
2019-02-24T07:02:24.531Z,76.50
2019-02-24T07:07:31.944Z,80.20
2019-02-24T07:12:38.247Z,77.50
2019-02-24T07:17:44.488Z,76.40
2019-02-24T07:22:50.759Z,76.80
2019-02-24T07:27:57.122Z,81.90
2019-02-24T07:33:03.691Z,79.30
2019-02-24T07:38:09.917Z,77.60
2019-02-24T07:43:17.449Z,76.90
2019-02-24T07:48:24.578Z,77.00
2019-02-24T07:53:30.931Z,77.00
2019-02-24T07:58:37.241Z,76.20
2019-02-24T08:03:43.505Z,76.90
2019-02-24T08:08:49.739Z,75.30
2019-02-24T08:13:57.068Z,77.30
2019-02-24T08:19:03.507Z,74.60
2019-02-24T08:24:09.876Z,77.70
2019-02-24T08:29:16.245Z,74.40
2019-02-24T08:34:22.634Z,70.90
2019-02-24T08:39:28.846Z,68.80
2019-02-24T08:44:35.202Z,66.00
2019-02-24T08:49:41.488Z,63.70
2019-02-24T08:54:47.932Z,63.00
2019-02-24T08:59:55.687Z,59.00
2019-02-24T09:05:02.027Z,59.70
2019-02-24T09:10:08.654Z,57.90
2019-02-24T09:15:15.093Z,57.10
2019-02-24T09:20:21.705Z,55.10
2019-02-24T09:25:28.571Z,55.60
2019-02-24T09:30:35.154Z,54.30
2019-02-24T09:35:41.347Z,52.30
2019-02-24T09:40:48.560Z,51.30
2019-02-24T09:45:54.871Z,51.40
2019-02-24T09:51:01.191Z,46.70
2019-02-24T09:56:08.437Z,46.30
2019-02-24T10:01:14.847Z,50.30
2019-02-24T10:06:21.163Z,46.20
2019-02-24T10:11:27.474Z,46.90
2019-02-24T10:16:34.050Z,48.30
2019-02-24T10:21:40.414Z,46.70
2019-02-24T10:26:46.710Z,45.50
2019-02-24T10:31:52.999Z,45.80
2019-02-24T10:36:59.277Z,44.30
2019-02-24T10:42:05.785Z,45.40
2019-02-24T10:47:12.107Z,45.60
2019-02-24T10:52:18.378Z,44.30
2019-02-24T10:57:24.769Z,44.30
2019-02-24T11:02:32.160Z,43.30
2019-02-24T11:07:38.536Z,41.80
2019-02-24T11:12:44.906Z,42.30
2019-02-24T11:17:51.345Z,40.60
2019-02-24T11:22:57.580Z,38.20
2019-02-24T11:28:03.915Z,37.90
2019-02-24T11:33:10.264Z,39.30
2019-02-24T11:38:17.039Z,37.30
2019-02-24T11:43:23.335Z,40.30
2019-02-24T11:48:29.653Z,39.10
2019-02-24T11:53:37.802Z,39.60
2019-02-24T11:58:44.330Z,37.90
2019-02-24T12:03:50.729Z,35.80
2019-02-24T12:09:05.089Z,36.30
2019-02-24T12:14:05.283Z,38.70
2019-02-24T12:19:11.636Z,38.40
2019-02-24T12:24:18.137Z,37.20
2019-02-24T12:29:24.568Z,38.30
2019-02-24T12:34:31.040Z,37.20
2019-02-24T12:39:37.266Z,37.00
2019-02-24T12:44:43.508Z,36.40
2019-02-24T12:49:49.853Z,38.30
2019-02-24T12:54:56.397Z,37.60
2019-02-24T13:00:02.768Z,34.30
2019-02-24T13:05:09.163Z,36.30
2019-02-24T13:10:16.100Z,36.40
2019-02-24T13:15:23.669Z,34.10
2019-02-24T13:20:29.940Z,35.20
2019-02-24T13:25:36.180Z,34.10
2019-02-24T13:30:42.491Z,34.30
2019-02-24T13:35:48.934Z,38.00
2019-02-24T13:40:55.153Z,36.60
2019-02-24T13:46:01.503Z,37.00
2019-02-24T13:51:08.662Z,31.90
2019-02-24T13:56:14.911Z,33.30
2019-02-24T14:01:21.130Z,34.20
2019-02-24T14:06:27.352Z,35.50
2019-02-24T14:11:33.639Z,34.80
2019-02-24T14:16:39.855Z,33.20
2019-02-24T14:21:47.335Z,34.40
2019-02-24T14:26:54.006Z,35.60
2019-02-24T14:32:00.331Z,33.80
2019-02-24T14:37:06.691Z,33.10
2019-02-24T14:42:13.241Z,34.70
2019-02-24T14:47:19.642Z,36.50
2019-02-24T14:52:25.976Z,34.10
2019-02-24T14:57:32.313Z,32.30
2019-02-24T15:02:42.472Z,33.90
2019-02-24T15:07:46.655Z,38.00
2019-02-24T15:12:53.024Z,36.40
2019-02-24T15:17:59.517Z,37.30
2019-02-24T15:23:06.888Z,38.70
2019-02-24T15:28:13.249Z,35.80
2019-02-24T15:33:20.161Z,36.60
2019-02-24T15:38:26.612Z,38.50
2019-02-24T15:43:32.983Z,35.80
2019-02-24T15:48:40.155Z,39.20
2019-02-24T15:53:46.412Z,40.70
2019-02-24T15:58:52.828Z,38.60
2019-02-24T16:03:59.417Z,37.50
2019-02-24T16:09:07.256Z,39.80
2019-02-24T16:14:13.831Z,38.40
2019-02-24T16:19:20.289Z,38.50
2019-02-24T16:24:26.799Z,37.60
2019-02-24T16:29:33.126Z,37.00
2019-02-24T16:34:39.962Z,37.60
2019-02-24T16:39:46.337Z,35.50
2019-02-24T16:44:52.661Z,36.30
2019-02-24T16:49:59.175Z,39.50
2019-02-24T16:55:05.837Z,39.40
2019-02-24T17:00:17.548Z,40.00
2019-02-24T17:05:25.090Z,38.20
2019-02-24T17:10:32.551Z,40.80
2019-02-24T17:15:38.964Z,41.00
2019-02-24T17:20:46.474Z,39.10
2019-02-24T17:25:53.195Z,43.70
2019-02-24T17:31:00.709Z,41.60
2019-02-24T17:36:07.699Z,45.30
2019-02-24T17:41:14.066Z,45.90
2019-02-24T17:46:21.366Z,46.90
2019-02-24T17:51:27.931Z,50.60
2019-02-24T17:56:34.337Z,51.40
2019-02-24T18:01:43.875Z,52.30
2019-02-24T18:06:52.223Z,51.10
2019-02-24T18:11:58.659Z,53.90
2019-02-24T18:17:05.500Z,53.40
2019-02-24T18:22:11.884Z,54.60
2019-02-24T18:27:18.517Z,58.10
2019-02-24T18:32:24.943Z,58.50
2019-02-24T18:37:31.232Z,58.40
2019-02-24T18:42:39.460Z,61.30
2019-02-24T18:47:45.643Z,60.80
2019-02-24T18:52:52.028Z,60.20
2019-02-24T18:57:58.308Z,64.60
2019-02-24T19:03:05.752Z,64.20
2019-02-24T19:08:12.300Z,63.70
2019-02-24T19:13:18.712Z,66.10
2019-02-24T19:18:25.104Z,66.90
2019-02-24T19:23:31.616Z,66.20
2019-02-24T19:28:37.932Z,66.30
2019-02-24T19:33:44.253Z,63.80
2019-02-24T19:38:50.780Z,68.20
2019-02-24T19:43:57.347Z,67.00
2019-02-24T19:49:03.748Z,67.60
2019-02-24T19:54:09.981Z,71.60
2019-02-24T19:59:16.325Z,68.90
2019-02-24T20:04:23.200Z,70.90
2019-02-24T20:09:29.463Z,71.00
2019-02-24T20:14:35.742Z,70.90
2019-02-24T20:19:43.296Z,72.80
2019-02-24T20:24:49.539Z,73.00
2019-02-24T20:29:55.875Z,71.80
2019-02-24T20:35:03.351Z,73.30
2019-02-24T20:40:09.982Z,73.20
2019-02-24T20:45:17.278Z,72.50
2019-02-24T20:50:23.655Z,70.50
2019-02-24T20:55:30.045Z,70.40
2019-02-24T21:00:39.713Z,71.10
2019-02-24T21:05:45.954Z,72.90
2019-02-24T21:10:52.244Z,73.40
2019-02-24T21:15:58.510Z,73.60
2019-02-24T21:21:05.894Z,73.10
2019-02-24T21:26:12.311Z,74.60
2019-02-24T21:31:18.745Z,74.90
2019-02-24T21:36:24.990Z,75.30
2019-02-24T21:41:31.526Z,76.90
2019-02-24T21:46:37.888Z,76.80
2019-02-24T21:51:44.984Z,78.90
2019-02-24T21:56:51.226Z,76.30
2019-02-24T22:01:57.725Z,79.10
2019-02-24T22:07:04.025Z,77.60
2019-02-24T22:12:10.268Z,79.50
2019-02-24T22:17:16.686Z,79.20
2019-02-24T22:22:23.037Z,80.70
2019-02-24T22:27:29.717Z,79.80
2019-02-24T22:32:37.867Z,80.60
2019-02-24T22:37:44.210Z,80.10
2019-02-24T22:42:50.940Z,80.60
2019-02-24T22:47:57.772Z,80.50
2019-02-24T22:53:04.081Z,80.50
2019-02-24T22:58:10.333Z,81.20
2019-02-24T23:03:16.686Z,80.40
2019-02-24T23:08:22.985Z,80.30
2019-02-24T23:13:30.362Z,82.50
2019-02-24T23:18:37.047Z,80.30
2019-02-24T23:23:43.258Z,82.40
2019-02-24T23:28:52.566Z,80.80
2019-02-24T23:33:58.840Z,81.50
2019-02-24T23:39:09.728Z,81.80
2019-02-24T23:44:16.347Z,80.50
2019-02-24T23:49:22.581Z,82.30
2019-02-24T23:54:28.898Z,84.90
2019-02-24T23:59:35.249Z,84.20
